sensor_id;sensor_type;location;lat;lon;timestamp;P1;durP1;ratioP1;P2;durP2;ratioP2
76475;SDS011;65308;50.078;14.854;2023-02-28T00:01:13;12.40;;;6.43;;
76475;SDS011;65308;50.078;14.854;2023-02-28T00:03:42;13.73;;;6.43;;
76475;SDS011;65308;50.078;14.854;2023-02-28T00:06:09;9.57;;;5.55;;
76475;SDS011;65308;50.078;14.854;2023-02-28T00:08:36;11.05;;;6.47;;
76475;SDS011;65308;50.078;14.854;2023-02-28T00:11:04;10.50;;;5.70;;
76475;SDS011;65308;50.078;14.854;2023-02-28T00:13:33;11.63;;;5.72;;
76475;SDS011;65308;50.078;14.854;2023-02-28T00:16:01;11.35;;;6.00;;
76475;SDS011;65308;50.078;14.854;2023-02-28T00:18:29;12.23;;;6.55;;
76475;SDS011;65308;50.078;14.854;2023-02-28T00:20:57;10.80;;;5.90;;
76475;SDS011;65308;50.078;14.854;2023-02-28T00:23:24;12.07;;;6.07;;
76475;SDS011;65308;50.078;14.854;2023-02-28T00:25:52;12.98;;;6.13;;
76475;SDS011;65308;50.078;14.854;2023-02-28T00:28:19;12.20;;;6.05;;
76475;SDS011;65308;50.078;14.854;2023-02-28T00:30:47;10.48;;;6.30;;
76475;SDS011;65308;50.078;14.854;2023-02-28T00:33:13;13.75;;;6.93;;
76475;SDS011;65308;50.078;14.854;2023-02-28T00:40:53;13.13;;;6.53;;
76475;SDS011;65308;50.078;14.854;2023-02-28T00:43:20;11.52;;;6.20;;
76475;SDS011;65308;50.078;14.854;2023-02-28T00:45:46;9.95;;;5.72;;
76475;SDS011;65308;50.078;14.854;2023-02-28T00:48:13;11.18;;;6.07;;
76475;SDS011;65308;50.078;14.854;2023-02-28T00:50:41;12.93;;;6.90;;
76475;SDS011;65308;50.078;14.854;2023-02-28T00:53:07;13.40;;;6.40;;
76475;SDS011;65308;50.078;14.854;2023-02-28T00:55:34;13.93;;;6.28;;
76475;SDS011;65308;50.078;14.854;2023-02-28T00:58:03;14.80;;;6.72;;
76475;SDS011;65308;50.078;14.854;2023-02-28T01:00:29;11.98;;;6.15;;
76475;SDS011;65308;50.078;14.854;2023-02-28T01:02:56;12.00;;;6.75;;
76475;SDS011;65308;50.078;14.854;2023-02-28T01:05:23;12.43;;;6.70;;
76475;SDS011;65308;50.078;14.854;2023-02-28T01:07:50;13.57;;;6.53;;
76475;SDS011;65308;50.078;14.854;2023-02-28T01:12:50;13.40;;;6.13;;
76475;SDS011;65308;50.078;14.854;2023-02-28T01:15:18;13.50;;;6.28;;
76475;SDS011;65308;50.078;14.854;2023-02-28T01:17:45;10.95;;;6.13;;
76475;SDS011;65308;50.078;14.854;2023-02-28T01:20:11;11.13;;;6.20;;
76475;SDS011;65308;50.078;14.854;2023-02-28T01:22:38;12.35;;;6.70;;
76475;SDS011;65308;50.078;14.854;2023-02-28T01:25:05;10.38;;;6.18;;
76475;SDS011;65308;50.078;14.854;2023-02-28T01:27:33;13.13;;;6.68;;
76475;SDS011;65308;50.078;14.854;2023-02-28T01:30:03;11.52;;;6.55;;
76475;SDS011;65308;50.078;14.854;2023-02-28T01:32:35;13.10;;;6.88;;
76475;SDS011;65308;50.078;14.854;2023-02-28T01:35:05;10.70;;;5.75;;
76475;SDS011;65308;50.078;14.854;2023-02-28T01:37:32;14.15;;;6.70;;
76475;SDS011;65308;50.078;14.854;2023-02-28T01:39:59;12.82;;;6.70;;
76475;SDS011;65308;50.078;14.854;2023-02-28T01:42:26;13.13;;;6.88;;
76475;SDS011;65308;50.078;14.854;2023-02-28T01:45:04;13.50;;;6.82;;
76475;SDS011;65308;50.078;14.854;2023-02-28T01:47:44;14.98;;;7.60;;
76475;SDS011;65308;50.078;14.854;2023-02-28T01:50:12;15.73;;;7.43;;
76475;SDS011;65308;50.078;14.854;2023-02-28T01:52:42;12.85;;;6.90;;
76475;SDS011;65308;50.078;14.854;2023-02-28T01:55:12;14.43;;;7.18;;
76475;SDS011;65308;50.078;14.854;2023-02-28T01:57:50;14.60;;;6.80;;
76475;SDS011;65308;50.078;14.854;2023-02-28T02:00:21;12.30;;;6.70;;
76475;SDS011;65308;50.078;14.854;2023-02-28T02:02:54;13.13;;;6.65;;
76475;SDS011;65308;50.078;14.854;2023-02-28T02:05:24;15.73;;;6.60;;
76475;SDS011;65308;50.078;14.854;2023-02-28T02:07:52;13.93;;;6.60;;
76475;SDS011;65308;50.078;14.854;2023-02-28T02:10:24;11.40;;;6.00;;
76475;SDS011;65308;50.078;14.854;2023-02-28T02:13:01;11.38;;;6.05;;
76475;SDS011;65308;50.078;14.854;2023-02-28T02:15:38;11.93;;;6.55;;
76475;SDS011;65308;50.078;14.854;2023-02-28T02:18:11;13.63;;;6.13;;
76475;SDS011;65308;50.078;14.854;2023-02-28T02:20:58;12.07;;;5.93;;
76475;SDS011;65308;50.078;14.854;2023-02-28T02:23:49;11.70;;;5.82;;
76475;SDS011;65308;50.078;14.854;2023-02-28T02:26:28;11.43;;;5.28;;
76475;SDS011;65308;50.078;14.854;2023-02-28T02:29:16;11.43;;;5.63;;
76475;SDS011;65308;50.078;14.854;2023-02-28T02:32:08;12.05;;;5.55;;
76475;SDS011;65308;50.078;14.854;2023-02-28T02:34:57;10.70;;;5.38;;
76475;SDS011;65308;50.078;14.854;2023-02-28T02:37:32;9.55;;;5.50;;
76475;SDS011;65308;50.078;14.854;2023-02-28T02:40:08;12.45;;;5.65;;
76475;SDS011;65308;50.078;14.854;2023-02-28T02:42:41;10.60;;;5.57;;
76475;SDS011;65308;50.078;14.854;2023-02-28T02:45:16;10.85;;;5.65;;
76475;SDS011;65308;50.078;14.854;2023-02-28T02:47:48;11.00;;;5.90;;
76475;SDS011;65308;50.078;14.854;2023-02-28T02:50:17;10.05;;;5.22;;
76475;SDS011;65308;50.078;14.854;2023-02-28T02:52:49;9.40;;;4.82;;
76475;SDS011;65308;50.078;14.854;2023-02-28T02:55:19;10.32;;;5.15;;
76475;SDS011;65308;50.078;14.854;2023-02-28T02:57:48;12.13;;;5.60;;
76475;SDS011;65308;50.078;14.854;2023-02-28T03:00:18;12.25;;;4.95;;
76475;SDS011;65308;50.078;14.854;2023-02-28T03:02:51;11.10;;;5.13;;
76475;SDS011;65308;50.078;14.854;2023-02-28T03:07:49;10.48;;;5.55;;
76475;SDS011;65308;50.078;14.854;2023-02-28T03:10:26;13.63;;;5.50;;
76475;SDS011;65308;50.078;14.854;2023-02-28T03:12:57;9.25;;;5.18;;
76475;SDS011;65308;50.078;14.854;2023-02-28T03:15:44;12.80;;;5.60;;
76475;SDS011;65308;50.078;14.854;2023-02-28T03:18:28;11.40;;;5.30;;
76475;SDS011;65308;50.078;14.854;2023-02-28T03:21:05;10.38;;;5.10;;
76475;SDS011;65308;50.078;14.854;2023-02-28T03:23:45;12.93;;;5.85;;
76475;SDS011;65308;50.078;14.854;2023-02-28T03:28:50;10.75;;;5.20;;
76475;SDS011;65308;50.078;14.854;2023-02-28T03:31:22;11.13;;;5.50;;
76475;SDS011;65308;50.078;14.854;2023-02-28T03:33:56;12.25;;;5.70;;
76475;SDS011;65308;50.078;14.854;2023-02-28T03:36:29;13.82;;;5.53;;
76475;SDS011;65308;50.078;14.854;2023-02-28T03:39:02;11.05;;;5.00;;
76475;SDS011;65308;50.078;14.854;2023-02-28T03:41:32;10.10;;;5.03;;
76475;SDS011;65308;50.078;14.854;2023-02-28T03:44:05;11.50;;;5.72;;
76475;SDS011;65308;50.078;14.854;2023-02-28T03:46:40;12.30;;;5.50;;
76475;SDS011;65308;50.078;14.854;2023-02-28T03:49:12;12.25;;;5.18;;
76475;SDS011;65308;50.078;14.854;2023-02-28T03:51:46;10.52;;;4.90;;
76475;SDS011;65308;50.078;14.854;2023-02-28T03:54:15;11.88;;;6.07;;
76475;SDS011;65308;50.078;14.854;2023-02-28T03:56:46;11.35;;;5.55;;
76475;SDS011;65308;50.078;14.854;2023-02-28T03:59:18;10.77;;;5.32;;
76475;SDS011;65308;50.078;14.854;2023-02-28T04:01:49;13.15;;;5.57;;
76475;SDS011;65308;50.078;14.854;2023-02-28T04:04:19;11.75;;;5.68;;
76475;SDS011;65308;50.078;14.854;2023-02-28T04:09:17;10.98;;;5.60;;
76475;SDS011;65308;50.078;14.854;2023-02-28T04:14:11;12.30;;;5.80;;
76475;SDS011;65308;50.078;14.854;2023-02-28T04:16:39;12.40;;;5.63;;
76475;SDS011;65308;50.078;14.854;2023-02-28T04:19:08;10.73;;;4.85;;
76475;SDS011;65308;50.078;14.854;2023-02-28T04:21:36;13.40;;;5.70;;
76475;SDS011;65308;50.078;14.854;2023-02-28T04:24:08;13.45;;;5.65;;
76475;SDS011;65308;50.078;14.854;2023-02-28T04:26:41;11.50;;;5.18;;
76475;SDS011;65308;50.078;14.854;2023-02-28T04:29:11;10.70;;;5.28;;
76475;SDS011;65308;50.078;14.854;2023-02-28T04:34:08;12.30;;;5.57;;
76475;SDS011;65308;50.078;14.854;2023-02-28T04:36:34;13.98;;;6.05;;
76475;SDS011;65308;50.078;14.854;2023-02-28T04:39:02;11.98;;;6.55;;
76475;SDS011;65308;50.078;14.854;2023-02-28T04:41:30;12.52;;;5.88;;
76475;SDS011;65308;50.078;14.854;2023-02-28T04:43:58;12.23;;;5.50;;
76475;SDS011;65308;50.078;14.854;2023-02-28T04:53:52;15.13;;;6.88;;
76475;SDS011;65308;50.078;14.854;2023-02-28T04:56:22;17.33;;;7.43;;
76475;SDS011;65308;50.078;14.854;2023-02-28T04:58:54;14.77;;;8.23;;
76475;SDS011;65308;50.078;14.854;2023-02-28T05:01:26;18.35;;;8.48;;
76475;SDS011;65308;50.078;14.854;2023-02-28T05:03:56;16.38;;;9.32;;
76475;SDS011;65308;50.078;14.854;2023-02-28T05:06:24;15.70;;;7.78;;
76475;SDS011;65308;50.078;14.854;2023-02-28T05:08:55;14.98;;;6.13;;
76475;SDS011;65308;50.078;14.854;2023-02-28T05:11:26;13.38;;;6.20;;
76475;SDS011;65308;50.078;14.854;2023-02-28T05:14:06;11.98;;;5.60;;
76475;SDS011;65308;50.078;14.854;2023-02-28T05:16:38;11.45;;;4.85;;
76475;SDS011;65308;50.078;14.854;2023-02-28T05:19:05;14.75;;;5.95;;
76475;SDS011;65308;50.078;14.854;2023-02-28T05:21:32;12.25;;;6.22;;
76475;SDS011;65308;50.078;14.854;2023-02-28T05:24:01;14.35;;;6.00;;
76475;SDS011;65308;50.078;14.854;2023-02-28T05:26:29;15.10;;;5.82;;
76475;SDS011;65308;50.078;14.854;2023-02-28T05:28:59;30.55;;;13.07;;
76475;SDS011;65308;50.078;14.854;2023-02-28T05:39:28;19.77;;;8.95;;
76475;SDS011;65308;50.078;14.854;2023-02-28T05:41:57;21.50;;;9.90;;
76475;SDS011;65308;50.078;14.854;2023-02-28T05:44:28;32.10;;;14.13;;
76475;SDS011;65308;50.078;14.854;2023-02-28T05:52:03;66.35;;;24.73;;
76475;SDS011;65308;50.078;14.854;2023-02-28T05:54:33;28.50;;;11.25;;
76475;SDS011;65308;50.078;14.854;2023-02-28T05:57:00;25.92;;;11.30;;
76475;SDS011;65308;50.078;14.854;2023-02-28T05:59:30;75.45;;;25.35;;
76475;SDS011;65308;50.078;14.854;2023-02-28T06:02:00;159.48;;;50.58;;
76475;SDS011;65308;50.078;14.854;2023-02-28T06:06:55;303.67;;;70.47;;
76475;SDS011;65308;50.078;14.854;2023-02-28T06:27:04;32.03;;;15.63;;
76475;SDS011;65308;50.078;14.854;2023-02-28T06:32:12;27.98;;;12.02;;
76475;SDS011;65308;50.078;14.854;2023-02-28T07:18:15;24.92;;;14.00;;
76475;SDS011;65308;50.078;14.854;2023-02-28T07:20:43;17.52;;;10.88;;
76475;SDS011;65308;50.078;14.854;2023-02-28T07:23:19;17.55;;;10.68;;
76475;SDS011;65308;50.078;14.854;2023-02-28T07:26:33;16.75;;;10.27;;
76475;SDS011;65308;50.078;14.854;2023-02-28T07:29:04;16.58;;;10.13;;
76475;SDS011;65308;50.078;14.854;2023-02-28T07:49:45;10.45;;;7.68;;
76475;SDS011;65308;50.078;14.854;2023-02-28T07:52:22;11.35;;;7.63;;
76475;SDS011;65308;50.078;14.854;2023-02-28T07:54:59;11.43;;;8.13;;
76475;SDS011;65308;50.078;14.854;2023-02-28T07:57:31;13.95;;;8.65;;
76475;SDS011;65308;50.078;14.854;2023-02-28T08:00:03;12.13;;;8.38;;
76475;SDS011;65308;50.078;14.854;2023-02-28T08:02:49;18.23;;;11.45;;
76475;SDS011;65308;50.078;14.854;2023-02-28T08:22:52;11.38;;;8.20;;
76475;SDS011;65308;50.078;14.854;2023-02-28T08:25:25;11.57;;;7.80;;
76475;SDS011;65308;50.078;14.854;2023-02-28T08:28:02;13.27;;;8.32;;
76475;SDS011;65308;50.078;14.854;2023-02-28T08:30:44;12.60;;;8.43;;
76475;SDS011;65308;50.078;14.854;2023-02-28T08:33:21;12.10;;;8.15;;
76475;SDS011;65308;50.078;14.854;2023-02-28T08:35:59;18.65;;;11.63;;
76475;SDS011;65308;50.078;14.854;2023-02-28T08:41:01;14.32;;;9.55;;
76475;SDS011;65308;50.078;14.854;2023-02-28T08:43:33;13.95;;;8.23;;
76475;SDS011;65308;50.078;14.854;2023-02-28T08:46:03;11.15;;;8.20;;
76475;SDS011;65308;50.078;14.854;2023-02-28T08:51:02;12.88;;;7.78;;
76475;SDS011;65308;50.078;14.854;2023-02-28T08:53:31;11.27;;;8.20;;
76475;SDS011;65308;50.078;14.854;2023-02-28T08:55:59;12.80;;;7.82;;
76475;SDS011;65308;50.078;14.854;2023-02-28T08:58:30;18.45;;;10.98;;
76475;SDS011;65308;50.078;14.854;2023-02-28T09:00:56;17.83;;;10.27;;
76475;SDS011;65308;50.078;14.854;2023-02-28T09:03:23;13.45;;;8.75;;
76475;SDS011;65308;50.078;14.854;2023-02-28T09:05:54;13.38;;;9.27;;
76475;SDS011;65308;50.078;14.854;2023-02-28T09:08:23;12.57;;;8.00;;
76475;SDS011;65308;50.078;14.854;2023-02-28T09:10:52;13.82;;;8.27;;
76475;SDS011;65308;50.078;14.854;2023-02-28T09:13:36;11.27;;;7.95;;
76475;SDS011;65308;50.078;14.854;2023-02-28T09:16:05;10.57;;;7.55;;
76475;SDS011;65308;50.078;14.854;2023-02-28T09:18:33;12.40;;;8.18;;
76475;SDS011;65308;50.078;14.854;2023-02-28T09:21:02;11.23;;;7.70;;
76475;SDS011;65308;50.078;14.854;2023-02-28T09:23:29;11.00;;;7.75;;
76475;SDS011;65308;50.078;14.854;2023-02-28T09:25:56;11.77;;;7.57;;
76475;SDS011;65308;50.078;14.854;2023-02-28T09:28:23;11.40;;;7.53;;
76475;SDS011;65308;50.078;14.854;2023-02-28T09:30:51;11.20;;;7.20;;
76475;SDS011;65308;50.078;14.854;2023-02-28T09:33:22;11.85;;;7.97;;
76475;SDS011;65308;50.078;14.854;2023-02-28T09:35:49;10.90;;;7.72;;
76475;SDS011;65308;50.078;14.854;2023-02-28T09:38:17;22.65;;;12.40;;
76475;SDS011;65308;50.078;14.854;2023-02-28T09:40:47;11.63;;;7.85;;
76475;SDS011;65308;50.078;14.854;2023-02-28T09:43:38;15.88;;;9.07;;
76475;SDS011;65308;50.078;14.854;2023-02-28T09:46:11;14.93;;;8.43;;
76475;SDS011;65308;50.078;14.854;2023-02-28T09:48:44;13.63;;;8.32;;
76475;SDS011;65308;50.078;14.854;2023-02-28T09:51:15;15.07;;;8.93;;
76475;SDS011;65308;50.078;14.854;2023-02-28T09:53:55;14.00;;;8.57;;
76475;SDS011;65308;50.078;14.854;2023-02-28T09:56:24;14.35;;;9.00;;
76475;SDS011;65308;50.078;14.854;2023-02-28T09:58:53;12.00;;;7.25;;
76475;SDS011;65308;50.078;14.854;2023-02-28T10:04:00;12.27;;;7.55;;
76475;SDS011;65308;50.078;14.854;2023-02-28T10:06:32;13.10;;;7.32;;
76475;SDS011;65308;50.078;14.854;2023-02-28T10:09:05;12.05;;;7.60;;
76475;SDS011;65308;50.078;14.854;2023-02-28T10:11:38;11.13;;;7.35;;
76475;SDS011;65308;50.078;14.854;2023-02-28T10:14:10;11.90;;;7.03;;
76475;SDS011;65308;50.078;14.854;2023-02-28T10:16:45;14.23;;;8.15;;
76475;SDS011;65308;50.078;14.854;2023-02-28T10:19:20;13.20;;;7.95;;
76475;SDS011;65308;50.078;14.854;2023-02-28T10:21:51;13.45;;;7.78;;
76475;SDS011;65308;50.078;14.854;2023-02-28T10:24:25;12.23;;;6.80;;
76475;SDS011;65308;50.078;14.854;2023-02-28T10:26:56;12.55;;;7.00;;
76475;SDS011;65308;50.078;14.854;2023-02-28T10:29:27;12.77;;;7.00;;
76475;SDS011;65308;50.078;14.854;2023-02-28T10:31:58;13.15;;;7.38;;
76475;SDS011;65308;50.078;14.854;2023-02-28T10:34:29;12.35;;;7.55;;
76475;SDS011;65308;50.078;14.854;2023-02-28T10:36:56;10.82;;;7.22;;
76475;SDS011;65308;50.078;14.854;2023-02-28T10:39:36;11.90;;;7.03;;
76475;SDS011;65308;50.078;14.854;2023-02-28T10:42:04;12.75;;;7.55;;
76475;SDS011;65308;50.078;14.854;2023-02-28T10:44:44;12.05;;;7.63;;
76475;SDS011;65308;50.078;14.854;2023-02-28T10:47:13;12.70;;;7.18;;
76475;SDS011;65308;50.078;14.854;2023-02-28T10:49:48;13.32;;;7.30;;
76475;SDS011;65308;50.078;14.854;2023-02-28T10:52:32;11.57;;;7.47;;
76475;SDS011;65308;50.078;14.854;2023-02-28T10:55:15;11.52;;;7.07;;
76475;SDS011;65308;50.078;14.854;2023-02-28T10:57:46;13.50;;;7.13;;
76475;SDS011;65308;50.078;14.854;2023-02-28T11:00:17;12.40;;;7.82;;
76475;SDS011;65308;50.078;14.854;2023-02-28T11:02:48;11.02;;;7.43;;
76475;SDS011;65308;50.078;14.854;2023-02-28T11:07:55;12.18;;;7.63;;
76475;SDS011;65308;50.078;14.854;2023-02-28T11:10:24;12.88;;;7.25;;
76475;SDS011;65308;50.078;14.854;2023-02-28T11:12:55;14.70;;;6.13;;
76475;SDS011;65308;50.078;14.854;2023-02-28T11:15:23;12.02;;;6.72;;
76475;SDS011;65308;50.078;14.854;2023-02-28T11:17:56;11.05;;;7.00;;
76475;SDS011;65308;50.078;14.854;2023-02-28T11:20:30;11.45;;;7.00;;
76475;SDS011;65308;50.078;14.854;2023-02-28T11:23:00;11.05;;;7.07;;
76475;SDS011;65308;50.078;14.854;2023-02-28T11:25:30;14.30;;;7.55;;
76475;SDS011;65308;50.078;14.854;2023-02-28T11:28:00;10.82;;;7.15;;
76475;SDS011;65308;50.078;14.854;2023-02-28T11:30:34;14.07;;;7.40;;
76475;SDS011;65308;50.078;14.854;2023-02-28T11:33:23;12.05;;;7.28;;
76475;SDS011;65308;50.078;14.854;2023-02-28T11:35:55;11.70;;;7.00;;
76475;SDS011;65308;50.078;14.854;2023-02-28T11:38:30;11.23;;;6.85;;
76475;SDS011;65308;50.078;14.854;2023-02-28T11:41:26;12.40;;;7.30;;
76475;SDS011;65308;50.078;14.854;2023-02-28T11:44:18;11.40;;;7.53;;
76475;SDS011;65308;50.078;14.854;2023-02-28T11:47:04;13.68;;;7.53;;
76475;SDS011;65308;50.078;14.854;2023-02-28T11:49:37;13.18;;;7.63;;
76475;SDS011;65308;50.078;14.854;2023-02-28T11:52:19;12.85;;;7.68;;
76475;SDS011;65308;50.078;14.854;2023-02-28T11:57:35;11.05;;;6.55;;
76475;SDS011;65308;50.078;14.854;2023-02-28T12:00:27;10.15;;;6.80;;
76475;SDS011;65308;50.078;14.854;2023-02-28T12:03:04;12.70;;;6.80;;
76475;SDS011;65308;50.078;14.854;2023-02-28T12:05:44;13.02;;;7.38;;
76475;SDS011;65308;50.078;14.854;2023-02-28T12:08:20;13.05;;;7.22;;
76475;SDS011;65308;50.078;14.854;2023-02-28T12:13:36;12.35;;;7.35;;
76475;SDS011;65308;50.078;14.854;2023-02-28T12:16:27;12.88;;;7.45;;
76475;SDS011;65308;50.078;14.854;2023-02-28T12:19:06;13.75;;;7.85;;
76475;SDS011;65308;50.078;14.854;2023-02-28T12:21:46;18.38;;;9.48;;
76475;SDS011;65308;50.078;14.854;2023-02-28T12:27:46;11.88;;;7.28;;
76475;SDS011;65308;50.078;14.854;2023-02-28T12:30:18;16.60;;;9.27;;
76475;SDS011;65308;50.078;14.854;2023-02-28T12:32:48;12.32;;;7.57;;
76475;SDS011;65308;50.078;14.854;2023-02-28T12:35:23;13.50;;;7.47;;
76475;SDS011;65308;50.078;14.854;2023-02-28T12:37:54;11.98;;;7.10;;
76475;SDS011;65308;50.078;14.854;2023-02-28T12:40:28;13.93;;;7.68;;
76475;SDS011;65308;50.078;14.854;2023-02-28T12:43:05;12.23;;;7.00;;
76475;SDS011;65308;50.078;14.854;2023-02-28T12:45:42;14.43;;;7.95;;
76475;SDS011;65308;50.078;14.854;2023-02-28T12:48:15;13.88;;;7.50;;
76475;SDS011;65308;50.078;14.854;2023-02-28T12:50:49;13.05;;;7.70;;
76475;SDS011;65308;50.078;14.854;2023-02-28T12:53:18;11.93;;;7.13;;
76475;SDS011;65308;50.078;14.854;2023-02-28T12:55:56;12.48;;;7.53;;
76475;SDS011;65308;50.078;14.854;2023-02-28T12:58:45;11.15;;;6.95;;
76475;SDS011;65308;50.078;14.854;2023-02-28T13:17:02;12.73;;;7.72;;
76475;SDS011;65308;50.078;14.854;2023-02-28T13:19:37;13.73;;;7.75;;
76475;SDS011;65308;50.078;14.854;2023-02-28T13:22:15;16.13;;;8.48;;
76475;SDS011;65308;50.078;14.854;2023-02-28T13:24:50;15.18;;;7.35;;
76475;SDS011;65308;50.078;14.854;2023-02-28T13:27:22;13.48;;;7.95;;
76475;SDS011;65308;50.078;14.854;2023-02-28T13:29:58;11.73;;;7.38;;
76475;SDS011;65308;50.078;14.854;2023-02-28T13:35:16;13.48;;;7.68;;
76475;SDS011;65308;50.078;14.854;2023-02-28T13:38:36;12.95;;;7.47;;
76475;SDS011;65308;50.078;14.854;2023-02-28T13:44:06;14.38;;;8.07;;
76475;SDS011;65308;50.078;14.854;2023-02-28T13:46:35;12.40;;;7.13;;
76475;SDS011;65308;50.078;14.854;2023-02-28T13:49:25;12.82;;;7.80;;
76475;SDS011;65308;50.078;14.854;2023-02-28T13:54:42;12.73;;;7.35;;
76475;SDS011;65308;50.078;14.854;2023-02-28T13:57:23;13.32;;;7.38;;
76475;SDS011;65308;50.078;14.854;2023-02-28T14:00:03;13.65;;;8.60;;
76475;SDS011;65308;50.078;14.854;2023-02-28T14:02:56;12.57;;;7.93;;
76475;SDS011;65308;50.078;14.854;2023-02-28T14:05:35;14.45;;;8.23;;
76475;SDS011;65308;50.078;14.854;2023-02-28T14:08:14;14.32;;;7.80;;
76475;SDS011;65308;50.078;14.854;2023-02-28T14:13:44;13.57;;;7.97;;
76475;SDS011;65308;50.078;14.854;2023-02-28T14:16:16;13.55;;;7.85;;
76475;SDS011;65308;50.078;14.854;2023-02-28T14:18:54;13.05;;;7.05;;
76475;SDS011;65308;50.078;14.854;2023-02-28T14:21:24;14.07;;;7.85;;
76475;SDS011;65308;50.078;14.854;2023-02-28T14:24:09;14.68;;;8.20;;
76475;SDS011;65308;50.078;14.854;2023-02-28T14:26:56;12.50;;;7.45;;
76475;SDS011;65308;50.078;14.854;2023-02-28T14:29:35;12.60;;;7.75;;
76475;SDS011;65308;50.078;14.854;2023-02-28T14:32:25;14.75;;;8.80;;
76475;SDS011;65308;50.078;14.854;2023-02-28T14:35:02;14.77;;;7.38;;
76475;SDS011;65308;50.078;14.854;2023-02-28T14:37:41;15.38;;;7.72;;
76475;SDS011;65308;50.078;14.854;2023-02-28T14:40:12;12.65;;;7.50;;
76475;SDS011;65308;50.078;14.854;2023-02-28T14:45:22;16.23;;;7.82;;
76475;SDS011;65308;50.078;14.854;2023-02-28T14:47:50;11.60;;;7.22;;
76475;SDS011;65308;50.078;14.854;2023-02-28T14:55:17;11.85;;;7.00;;
76475;SDS011;65308;50.078;14.854;2023-02-28T15:18:33;13.60;;;8.40;;
76475;SDS011;65308;50.078;14.854;2023-02-28T15:21:14;13.90;;;8.52;;
76475;SDS011;65308;50.078;14.854;2023-02-28T15:23:48;13.00;;;7.55;;
76475;SDS011;65308;50.078;14.854;2023-02-28T15:26:24;13.00;;;7.72;;
76475;SDS011;65308;50.078;14.854;2023-02-28T15:31:31;16.73;;;8.38;;
76475;SDS011;65308;50.078;14.854;2023-02-28T15:57:42;15.00;;;8.25;;
76475;SDS011;65308;50.078;14.854;2023-02-28T16:00:13;17.33;;;8.25;;
76475;SDS011;65308;50.078;14.854;2023-02-28T16:02:44;15.52;;;8.00;;
76475;SDS011;65308;50.078;14.854;2023-02-28T16:05:18;14.30;;;8.37;;
76475;SDS011;65308;50.078;14.854;2023-02-28T16:07:53;14.82;;;8.07;;
76475;SDS011;65308;50.078;14.854;2023-02-28T16:10:20;17.38;;;8.13;;
76475;SDS011;65308;50.078;14.854;2023-02-28T17:35:28;23.27;;;12.30;;
76475;SDS011;65308;50.078;14.854;2023-02-28T17:37:56;22.15;;;12.63;;
76475;SDS011;65308;50.078;14.854;2023-02-28T17:40:26;28.45;;;15.60;;
76475;SDS011;65308;50.078;14.854;2023-02-28T17:43:06;32.30;;;19.98;;
76475;SDS011;65308;50.078;14.854;2023-02-28T17:46:23;25.23;;;13.35;;
76475;SDS011;65308;50.078;14.854;2023-02-28T17:48:58;25.15;;;11.50;;
76475;SDS011;65308;50.078;14.854;2023-02-28T18:14:12;90.18;;;37.60;;
76475;SDS011;65308;50.078;14.854;2023-02-28T18:19:26;37.53;;;18.52;;
76475;SDS011;65308;50.078;14.854;2023-02-28T18:22:12;75.57;;;34.85;;
76475;SDS011;65308;50.078;14.854;2023-02-28T18:24:45;89.15;;;43.38;;
76475;SDS011;65308;50.078;14.854;2023-02-28T18:27:25;65.53;;;32.85;;
76475;SDS011;65308;50.078;14.854;2023-02-28T19:16:30;49.80;;;23.40;;
76475;SDS011;65308;50.078;14.854;2023-02-28T19:18:58;47.72;;;24.52;;
76475;SDS011;65308;50.078;14.854;2023-02-28T19:21:27;60.20;;;28.45;;
76475;SDS011;65308;50.078;14.854;2023-02-28T19:23:57;52.60;;;26.42;;
76475;SDS011;65308;50.078;14.854;2023-02-28T19:26:24;52.28;;;24.42;;
76475;SDS011;65308;50.078;14.854;2023-02-28T19:28:52;53.08;;;27.10;;
76475;SDS011;65308;50.078;14.854;2023-02-28T19:31:20;40.78;;;20.25;;
76475;SDS011;65308;50.078;14.854;2023-02-28T19:33:49;43.47;;;22.33;;
76475;SDS011;65308;50.078;14.854;2023-02-28T19:36:17;45.58;;;19.67;;
76475;SDS011;65308;50.078;14.854;2023-02-28T19:38:44;41.10;;;19.85;;
76475;SDS011;65308;50.078;14.854;2023-02-28T19:41:15;49.40;;;23.35;;
76475;SDS011;65308;50.078;14.854;2023-02-28T19:44:09;55.53;;;25.10;;
76475;SDS011;65308;50.078;14.854;2023-02-28T19:46:37;55.95;;;26.80;;
76475;SDS011;65308;50.078;14.854;2023-02-28T19:49:05;59.33;;;25.98;;
76475;SDS011;65308;50.078;14.854;2023-02-28T19:51:32;50.00;;;23.27;;
76475;SDS011;65308;50.078;14.854;2023-02-28T19:53:59;91.05;;;45.25;;
76475;SDS011;65308;50.078;14.854;2023-02-28T19:56:26;55.97;;;26.30;;
76475;SDS011;65308;50.078;14.854;2023-02-28T19:58:54;51.90;;;25.60;;
76475;SDS011;65308;50.078;14.854;2023-02-28T20:01:23;52.85;;;22.42;;
76475;SDS011;65308;50.078;14.854;2023-02-28T20:03:50;50.80;;;23.08;;
76475;SDS011;65308;50.078;14.854;2023-02-28T20:06:18;48.42;;;21.25;;
76475;SDS011;65308;50.078;14.854;2023-02-28T20:08:48;45.33;;;21.02;;
76475;SDS011;65308;50.078;14.854;2023-02-28T20:11:16;46.45;;;22.40;;
76475;SDS011;65308;50.078;14.854;2023-02-28T20:13:43;42.00;;;20.88;;
76475;SDS011;65308;50.078;14.854;2023-02-28T20:16:11;47.00;;;22.05;;
76475;SDS011;65308;50.078;14.854;2023-02-28T20:18:39;46.00;;;22.15;;
76475;SDS011;65308;50.078;14.854;2023-02-28T20:21:15;46.25;;;23.00;;
76475;SDS011;65308;50.078;14.854;2023-02-28T20:23:49;53.10;;;25.88;;
76475;SDS011;65308;50.078;14.854;2023-02-28T20:26:29;50.60;;;25.13;;
76475;SDS011;65308;50.078;14.854;2023-02-28T20:29:03;47.70;;;24.15;;
76475;SDS011;65308;50.078;14.854;2023-02-28T20:34:08;52.97;;;26.20;;
76475;SDS011;65308;50.078;14.854;2023-02-28T21:01:55;56.42;;;25.45;;
76475;SDS011;65308;50.078;14.854;2023-02-28T21:04:25;63.38;;;27.65;;
76475;SDS011;65308;50.078;14.854;2023-02-28T21:06:53;55.38;;;24.75;;
76475;SDS011;65308;50.078;14.854;2023-02-28T21:09:21;60.67;;;26.80;;
76475;SDS011;65308;50.078;14.854;2023-02-28T21:11:52;55.55;;;25.65;;
76475;SDS011;65308;50.078;14.854;2023-02-28T21:16:51;57.25;;;25.13;;
76475;SDS011;65308;50.078;14.854;2023-02-28T21:19:18;55.58;;;25.23;;
76475;SDS011;65308;50.078;14.854;2023-02-28T21:21:47;52.83;;;25.10;;
76475;SDS011;65308;50.078;14.854;2023-02-28T21:24:16;55.90;;;25.17;;
76475;SDS011;65308;50.078;14.854;2023-02-28T21:26:44;51.25;;;23.02;;
76475;SDS011;65308;50.078;14.854;2023-02-28T21:29:12;48.78;;;22.40;;
76475;SDS011;65308;50.078;14.854;2023-02-28T21:31:39;45.35;;;22.08;;
76475;SDS011;65308;50.078;14.854;2023-02-28T21:34:09;52.60;;;22.45;;
76475;SDS011;65308;50.078;14.854;2023-02-28T21:36:37;46.75;;;21.38;;
76475;SDS011;65308;50.078;14.854;2023-02-28T21:39:06;43.08;;;20.90;;
76475;SDS011;65308;50.078;14.854;2023-02-28T21:41:35;48.10;;;21.42;;
76475;SDS011;65308;50.078;14.854;2023-02-28T21:44:02;42.80;;;21.80;;
76475;SDS011;65308;50.078;14.854;2023-02-28T21:46:30;50.47;;;22.80;;
76475;SDS011;65308;50.078;14.854;2023-02-28T21:48:57;50.97;;;24.77;;
76475;SDS011;65308;50.078;14.854;2023-02-28T21:51:26;55.13;;;26.65;;
76475;SDS011;65308;50.078;14.854;2023-02-28T21:53:55;62.15;;;26.10;;
76475;SDS011;65308;50.078;14.854;2023-02-28T21:56:23;56.90;;;25.50;;
76475;SDS011;65308;50.078;14.854;2023-02-28T21:58:52;59.78;;;25.80;;